Caribou Island, Canada
Current Conditions -  °F | °C
As of 10:00 AM on Thursday 18 Dec 2014 (Local Time) from CYXZ Reporting Station
Clear Clear  
Wind Chill:   Ceiling: Unl
Heat Index:   Visibility: 15mi
Dew Point: -4°   Wind: 0mph
Humidity: 78%   Direction: NA
Pressure: 30.31"   Gusts: NA
Location:  47.33°N, 85.83°W
Report Text: CYXZ 181500Z 00000KT 15SM SKC M17/M20 A3031 RMK SLP291
Loading
Personal Weather Stations






























Interactive Weather Map New forecast layout! Learn more

10-Day Weather Forecast

Advertisements
Track Severe Weather on mobile